sensor_id;sensor_type;location;lat;lon;timestamp;P1;durP1;ratioP1;P2;durP2;ratioP2
5951;SDS011;3001;42.622;23.194;2022-07-31T00:02:06;6.47;;;5.90;;
5951;SDS011;3001;42.622;23.194;2022-07-31T00:04:33;6.63;;;6.03;;
5951;SDS011;3001;42.622;23.194;2022-07-31T00:07:00;5.47;;;5.17;;
5951;SDS011;3001;42.622;23.194;2022-07-31T00:09:27;5.73;;;5.33;;
5951;SDS011;3001;42.622;23.194;2022-07-31T00:11:54;5.77;;;5.37;;
5951;SDS011;3001;42.622;23.194;2022-07-31T00:14:21;6.60;;;6.17;;
5951;SDS011;3001;42.622;23.194;2022-07-31T00:16:48;6.23;;;5.83;;
5951;SDS011;3001;42.622;23.194;2022-07-31T00:19:16;7.17;;;6.77;;
5951;SDS011;3001;42.622;23.194;2022-07-31T00:21:43;7.23;;;6.63;;
5951;SDS011;3001;42.622;23.194;2022-07-31T00:24:09;7.17;;;6.77;;
5951;SDS011;3001;42.622;23.194;2022-07-31T00:26:36;7.03;;;6.63;;
5951;SDS011;3001;42.622;23.194;2022-07-31T00:29:04;7.87;;;7.13;;
5951;SDS011;3001;42.622;23.194;2022-07-31T00:31:31;8.97;;;8.17;;
5951;SDS011;3001;42.622;23.194;2022-07-31T00:33:58;10.23;;;9.23;;
5951;SDS011;3001;42.622;23.194;2022-07-31T00:36:26;10.27;;;9.50;;
5951;SDS011;3001;42.622;23.194;2022-07-31T00:38:53;9.90;;;9.07;;
5951;SDS011;3001;42.622;23.194;2022-07-31T00:41:20;9.90;;;9.30;;
5951;SDS011;3001;42.622;23.194;2022-07-31T00:43:47;10.07;;;9.33;;
5951;SDS011;3001;42.622;23.194;2022-07-31T00:46:13;9.37;;;8.57;;
5951;SDS011;3001;42.622;23.194;2022-07-31T00:48:40;10.90;;;9.93;;
5951;SDS011;3001;42.622;23.194;2022-07-31T00:51:07;10.03;;;9.23;;
5951;SDS011;3001;42.622;23.194;2022-07-31T00:53:35;11.03;;;10.00;;
5951;SDS011;3001;42.622;23.194;2022-07-31T00:56:02;10.80;;;10.00;;
5951;SDS011;3001;42.622;23.194;2022-07-31T00:58:29;10.87;;;9.93;;
5951;SDS011;3001;42.622;23.194;2022-07-31T01:00:56;11.57;;;10.47;;
5951;SDS011;3001;42.622;23.194;2022-07-31T01:03:22;11.40;;;10.53;;
5951;SDS011;3001;42.622;23.194;2022-07-31T01:05:49;11.60;;;10.63;;
5951;SDS011;3001;42.622;23.194;2022-07-31T01:08:16;12.00;;;10.80;;
5951;SDS011;3001;42.622;23.194;2022-07-31T01:10:47;10.73;;;9.83;;
5951;SDS011;3001;42.622;23.194;2022-07-31T01:13:29;10.13;;;8.83;;
5951;SDS011;3001;42.622;23.194;2022-07-31T01:15:59;9.03;;;8.10;;
5951;SDS011;3001;42.622;23.194;2022-07-31T01:18:26;6.83;;;6.33;;
5951;SDS011;3001;42.622;23.194;2022-07-31T01:20:58;6.73;;;6.23;;
5951;SDS011;3001;42.622;23.194;2022-07-31T01:26:33;5.97;;;5.57;;
5951;SDS011;3001;42.622;23.194;2022-07-31T01:29:09;6.33;;;5.93;;
5951;SDS011;3001;42.622;23.194;2022-07-31T01:31:42;6.63;;;5.60;;
5951;SDS011;3001;42.622;23.194;2022-07-31T01:34:15;6.33;;;5.60;;
5951;SDS011;3001;42.622;23.194;2022-07-31T01:36:50;7.30;;;4.90;;
5951;SDS011;3001;42.622;23.194;2022-07-31T01:39:23;5.40;;;4.90;;
5951;SDS011;3001;42.622;23.194;2022-07-31T01:41:52;5.67;;;4.40;;
5951;SDS011;3001;42.622;23.194;2022-07-31T01:44:22;5.27;;;4.20;;
5951;SDS011;3001;42.622;23.194;2022-07-31T01:46:51;3.87;;;3.57;;
5951;SDS011;3001;42.622;23.194;2022-07-31T01:49:20;5.23;;;3.90;;
5951;SDS011;3001;42.622;23.194;2022-07-31T01:51:47;7.57;;;3.87;;
5951;SDS011;3001;42.622;23.194;2022-07-31T01:54:15;4.60;;;4.20;;
5951;SDS011;3001;42.622;23.194;2022-07-31T01:56:44;4.10;;;3.80;;
5951;SDS011;3001;42.622;23.194;2022-07-31T01:59:13;3.60;;;3.40;;
5951;SDS011;3001;42.622;23.194;2022-07-31T02:01:42;3.83;;;3.63;;
5951;SDS011;3001;42.622;23.194;2022-07-31T02:04:10;3.87;;;3.57;;
5951;SDS011;3001;42.622;23.194;2022-07-31T02:06:38;4.20;;;4.00;;
5951;SDS011;3001;42.622;23.194;2022-07-31T02:09:05;4.90;;;4.50;;
5951;SDS011;3001;42.622;23.194;2022-07-31T02:11:32;4.10;;;3.90;;
5951;SDS011;3001;42.622;23.194;2022-07-31T02:13:59;4.50;;;4.07;;
5951;SDS011;3001;42.622;23.194;2022-07-31T02:16:28;4.07;;;3.87;;
5951;SDS011;3001;42.622;23.194;2022-07-31T02:18:57;7.83;;;4.17;;
5951;SDS011;3001;42.622;23.194;2022-07-31T02:21:26;4.30;;;3.97;;
5951;SDS011;3001;42.622;23.194;2022-07-31T02:23:53;3.90;;;3.70;;
5951;SDS011;3001;42.622;23.194;2022-07-31T02:26:21;3.67;;;3.37;;
5951;SDS011;3001;42.622;23.194;2022-07-31T02:28:49;4.80;;;4.07;;
5951;SDS011;3001;42.622;23.194;2022-07-31T02:31:17;6.97;;;4.53;;
5951;SDS011;3001;42.622;23.194;2022-07-31T02:33:47;4.93;;;4.40;;
5951;SDS011;3001;42.622;23.194;2022-07-31T02:36:16;5.80;;;4.33;;
5951;SDS011;3001;42.622;23.194;2022-07-31T02:38:46;4.50;;;4.20;;
5951;SDS011;3001;42.622;23.194;2022-07-31T02:41:14;4.67;;;4.47;;
5951;SDS011;3001;42.622;23.194;2022-07-31T02:43:43;4.47;;;4.17;;
5951;SDS011;3001;42.622;23.194;2022-07-31T02:46:11;8.60;;;4.50;;
5951;SDS011;3001;42.622;23.194;2022-07-31T02:48:39;4.40;;;4.13;;
5951;SDS011;3001;42.622;23.194;2022-07-31T02:51:07;4.87;;;4.60;;
5951;SDS011;3001;42.622;23.194;2022-07-31T02:53:35;5.70;;;4.70;;
5951;SDS011;3001;42.622;23.194;2022-07-31T02:56:03;4.77;;;4.50;;
5951;SDS011;3001;42.622;23.194;2022-07-31T02:58:33;4.87;;;4.67;;
5951;SDS011;3001;42.622;23.194;2022-07-31T03:01:00;5.07;;;4.77;;
5951;SDS011;3001;42.622;23.194;2022-07-31T03:03:28;4.00;;;3.80;;
5951;SDS011;3001;42.622;23.194;2022-07-31T03:05:54;4.77;;;4.37;;
5951;SDS011;3001;42.622;23.194;2022-07-31T03:08:21;5.20;;;4.70;;
5951;SDS011;3001;42.622;23.194;2022-07-31T03:10:50;5.10;;;4.70;;
5951;SDS011;3001;42.622;23.194;2022-07-31T03:13:16;5.33;;;4.80;;
5951;SDS011;3001;42.622;23.194;2022-07-31T03:15:45;4.43;;;4.23;;
5951;SDS011;3001;42.622;23.194;2022-07-31T03:18:13;4.57;;;4.27;;
5951;SDS011;3001;42.622;23.194;2022-07-31T03:20:41;4.60;;;4.20;;
5951;SDS011;3001;42.622;23.194;2022-07-31T03:23:09;6.93;;;4.73;;
5951;SDS011;3001;42.622;23.194;2022-07-31T03:25:38;5.30;;;4.90;;
5951;SDS011;3001;42.622;23.194;2022-07-31T03:28:07;6.17;;;4.67;;
5951;SDS011;3001;42.622;23.194;2022-07-31T03:30:34;4.40;;;4.20;;
5951;SDS011;3001;42.622;23.194;2022-07-31T03:33:01;4.53;;;4.33;;
5951;SDS011;3001;42.622;23.194;2022-07-31T03:35:29;10.37;;;5.33;;
5951;SDS011;3001;42.622;23.194;2022-07-31T03:37:56;5.30;;;5.00;;
5951;SDS011;3001;42.622;23.194;2022-07-31T03:40:23;5.40;;;4.97;;
5951;SDS011;3001;42.622;23.194;2022-07-31T03:42:50;6.03;;;5.63;;
5951;SDS011;3001;42.622;23.194;2022-07-31T03:45:20;5.30;;;4.90;;
5951;SDS011;3001;42.622;23.194;2022-07-31T03:47:47;5.63;;;5.13;;
5951;SDS011;3001;42.622;23.194;2022-07-31T03:50:14;5.47;;;4.97;;
5951;SDS011;3001;42.622;23.194;2022-07-31T03:52:42;5.77;;;5.40;;
5951;SDS011;3001;42.622;23.194;2022-07-31T03:55:10;7.87;;;6.23;;
5951;SDS011;3001;42.622;23.194;2022-07-31T03:57:37;5.93;;;5.43;;
5951;SDS011;3001;42.622;23.194;2022-07-31T04:00:07;5.60;;;5.30;;
5951;SDS011;3001;42.622;23.194;2022-07-31T04:02:36;6.20;;;5.80;;
5951;SDS011;3001;42.622;23.194;2022-07-31T04:05:04;6.30;;;5.87;;
5951;SDS011;3001;42.622;23.194;2022-07-31T04:07:31;5.23;;;4.93;;
5951;SDS011;3001;42.622;23.194;2022-07-31T04:09:58;9.30;;;5.93;;
5951;SDS011;3001;42.622;23.194;2022-07-31T04:12:26;6.67;;;5.70;;
5951;SDS011;3001;42.622;23.194;2022-07-31T04:14:53;6.40;;;5.90;;
5951;SDS011;3001;42.622;23.194;2022-07-31T04:17:20;5.77;;;5.30;;
5951;SDS011;3001;42.622;23.194;2022-07-31T04:19:48;6.23;;;5.90;;
5951;SDS011;3001;42.622;23.194;2022-07-31T04:22:15;9.37;;;6.00;;
5951;SDS011;3001;42.622;23.194;2022-07-31T04:24:42;6.63;;;6.10;;
5951;SDS011;3001;42.622;23.194;2022-07-31T04:27:09;7.13;;;6.67;;
5951;SDS011;3001;42.622;23.194;2022-07-31T04:29:37;7.50;;;7.00;;
5951;SDS011;3001;42.622;23.194;2022-07-31T04:32:03;7.67;;;7.07;;
5951;SDS011;3001;42.622;23.194;2022-07-31T04:34:30;6.77;;;6.17;;
5951;SDS011;3001;42.622;23.194;2022-07-31T04:36:59;8.20;;;6.23;;
5951;SDS011;3001;42.622;23.194;2022-07-31T04:39:25;8.17;;;6.10;;
5951;SDS011;3001;42.622;23.194;2022-07-31T04:41:52;6.80;;;6.33;;
5951;SDS011;3001;42.622;23.194;2022-07-31T04:44:20;7.40;;;6.67;;
5951;SDS011;3001;42.622;23.194;2022-07-31T04:46:47;7.57;;;6.87;;
5951;SDS011;3001;42.622;23.194;2022-07-31T04:49:13;7.77;;;7.20;;
5951;SDS011;3001;42.622;23.194;2022-07-31T04:51:41;9.43;;;6.70;;
5951;SDS011;3001;42.622;23.194;2022-07-31T04:54:10;7.73;;;7.27;;
5951;SDS011;3001;42.622;23.194;2022-07-31T04:56:37;7.40;;;7.07;;
5951;SDS011;3001;42.622;23.194;2022-07-31T04:59:07;9.17;;;8.37;;
5951;SDS011;3001;42.622;23.194;2022-07-31T05:01:35;8.03;;;7.47;;
5951;SDS011;3001;42.622;23.194;2022-07-31T05:04:03;8.30;;;7.90;;
5951;SDS011;3001;42.622;23.194;2022-07-31T05:06:31;8.40;;;7.77;;
5951;SDS011;3001;42.622;23.194;2022-07-31T05:08:59;8.77;;;8.20;;
5951;SDS011;3001;42.622;23.194;2022-07-31T05:11:28;8.30;;;7.60;;
5951;SDS011;3001;42.622;23.194;2022-07-31T05:13:55;8.67;;;7.97;;
5951;SDS011;3001;42.622;23.194;2022-07-31T05:16:23;8.40;;;7.60;;
5951;SDS011;3001;42.622;23.194;2022-07-31T05:18:51;9.80;;;9.10;;
5951;SDS011;3001;42.622;23.194;2022-07-31T05:21:18;9.90;;;9.13;;
5951;SDS011;3001;42.622;23.194;2022-07-31T05:23:46;9.77;;;9.17;;
5951;SDS011;3001;42.622;23.194;2022-07-31T05:26:14;9.37;;;8.67;;
5951;SDS011;3001;42.622;23.194;2022-07-31T05:28:43;9.23;;;8.73;;
5951;SDS011;3001;42.622;23.194;2022-07-31T05:31:10;10.87;;;10.10;;
5951;SDS011;3001;42.622;23.194;2022-07-31T05:33:36;10.83;;;10.07;;
5951;SDS011;3001;42.622;23.194;2022-07-31T05:36:04;10.87;;;10.17;;
5951;SDS011;3001;42.622;23.194;2022-07-31T05:38:31;10.23;;;9.53;;
5951;SDS011;3001;42.622;23.194;2022-07-31T05:40:58;11.97;;;10.83;;
5951;SDS011;3001;42.622;23.194;2022-07-31T05:43:25;12.03;;;11.03;;
5951;SDS011;3001;42.622;23.194;2022-07-31T05:45:53;12.80;;;11.60;;
5951;SDS011;3001;42.622;23.194;2022-07-31T05:48:21;11.40;;;10.60;;
5951;SDS011;3001;42.622;23.194;2022-07-31T05:50:48;13.20;;;12.00;;
5951;SDS011;3001;42.622;23.194;2022-07-31T05:53:15;13.83;;;12.53;;
5951;SDS011;3001;42.622;23.194;2022-07-31T05:55:43;13.77;;;12.47;;
5951;SDS011;3001;42.622;23.194;2022-07-31T05:58:11;14.47;;;12.77;;
5951;SDS011;3001;42.622;23.194;2022-07-31T06:00:39;14.37;;;13.10;;
5951;SDS011;3001;42.622;23.194;2022-07-31T06:03:09;14.30;;;12.97;;
5951;SDS011;3001;42.622;23.194;2022-07-31T06:05:36;12.57;;;11.43;;
5951;SDS011;3001;42.622;23.194;2022-07-31T06:08:04;13.27;;;12.07;;
5951;SDS011;3001;42.622;23.194;2022-07-31T06:10:31;14.63;;;13.30;;
5951;SDS011;3001;42.622;23.194;2022-07-31T06:12:58;12.83;;;11.70;;
5951;SDS011;3001;42.622;23.194;2022-07-31T06:15:25;14.70;;;13.13;;
5951;SDS011;3001;42.622;23.194;2022-07-31T06:17:52;16.40;;;14.63;;
5951;SDS011;3001;42.622;23.194;2022-07-31T06:20:20;15.63;;;13.83;;
5951;SDS011;3001;42.622;23.194;2022-07-31T06:22:47;17.47;;;14.23;;
5951;SDS011;3001;42.622;23.194;2022-07-31T06:25:14;14.63;;;13.10;;
5951;SDS011;3001;42.622;23.194;2022-07-31T06:27:41;15.00;;;13.40;;
5951;SDS011;3001;42.622;23.194;2022-07-31T06:30:08;16.13;;;14.37;;
5951;SDS011;3001;42.622;23.194;2022-07-31T06:32:36;15.93;;;14.23;;
5951;SDS011;3001;42.622;23.194;2022-07-31T06:35:04;15.07;;;13.63;;
5951;SDS011;3001;42.622;23.194;2022-07-31T06:37:33;17.57;;;14.30;;
5951;SDS011;3001;42.622;23.194;2022-07-31T06:40:00;16.10;;;14.40;;
5951;SDS011;3001;42.622;23.194;2022-07-31T06:42:29;17.33;;;15.57;;
5951;SDS011;3001;42.622;23.194;2022-07-31T06:44:55;17.70;;;15.80;;
5951;SDS011;3001;42.622;23.194;2022-07-31T06:47:23;16.53;;;14.47;;
5951;SDS011;3001;42.622;23.194;2022-07-31T06:49:50;19.97;;;16.63;;
5951;SDS011;3001;42.622;23.194;2022-07-31T06:52:18;17.43;;;15.30;;
5951;SDS011;3001;42.622;23.194;2022-07-31T06:54:46;19.87;;;16.77;;
5951;SDS011;3001;42.622;23.194;2022-07-31T06:57:13;23.37;;;16.17;;
5951;SDS011;3001;42.622;23.194;2022-07-31T06:59:40;20.03;;;17.17;;
5951;SDS011;3001;42.622;23.194;2022-07-31T07:02:07;15.47;;;14.00;;
5951;SDS011;3001;42.622;23.194;2022-07-31T07:04:33;17.37;;;15.27;;
5951;SDS011;3001;42.622;23.194;2022-07-31T07:07:00;22.53;;;16.83;;
5951;SDS011;3001;42.622;23.194;2022-07-31T07:09:27;18.00;;;15.87;;
5951;SDS011;3001;42.622;23.194;2022-07-31T07:11:56;17.87;;;16.03;;
5951;SDS011;3001;42.622;23.194;2022-07-31T07:14:23;20.73;;;16.97;;
5951;SDS011;3001;42.622;23.194;2022-07-31T07:16:49;15.53;;;13.97;;
5951;SDS011;3001;42.622;23.194;2022-07-31T07:19:16;15.97;;;14.57;;
5951;SDS011;3001;42.622;23.194;2022-07-31T07:21:43;16.20;;;14.70;;
5951;SDS011;3001;42.622;23.194;2022-07-31T07:24:10;16.20;;;14.70;;
5951;SDS011;3001;42.622;23.194;2022-07-31T07:26:37;17.37;;;15.67;;
5951;SDS011;3001;42.622;23.194;2022-07-31T07:29:05;17.37;;;15.77;;
5951;SDS011;3001;42.622;23.194;2022-07-31T07:31:32;17.77;;;16.03;;
5951;SDS011;3001;42.622;23.194;2022-07-31T07:33:58;17.47;;;15.67;;
5951;SDS011;3001;42.622;23.194;2022-07-31T07:36:26;18.03;;;16.20;;
5951;SDS011;3001;42.622;23.194;2022-07-31T07:38:53;19.40;;;16.13;;
5951;SDS011;3001;42.622;23.194;2022-07-31T07:41:21;17.70;;;15.83;;
5951;SDS011;3001;42.622;23.194;2022-07-31T07:43:48;19.10;;;16.53;;
5951;SDS011;3001;42.622;23.194;2022-07-31T07:46:16;19.13;;;17.17;;
5951;SDS011;3001;42.622;23.194;2022-07-31T07:48:43;18.67;;;16.27;;
5951;SDS011;3001;42.622;23.194;2022-07-31T07:51:09;18.77;;;16.37;;
5951;SDS011;3001;42.622;23.194;2022-07-31T07:53:36;18.83;;;16.93;;
5951;SDS011;3001;42.622;23.194;2022-07-31T07:56:04;19.00;;;17.00;;
5951;SDS011;3001;42.622;23.194;2022-07-31T07:58:31;17.27;;;14.63;;
5951;SDS011;3001;42.622;23.194;2022-07-31T08:00:58;17.07;;;15.07;;
5951;SDS011;3001;42.622;23.194;2022-07-31T08:03:26;17.10;;;14.97;;
5951;SDS011;3001;42.622;23.194;2022-07-31T08:05:53;15.80;;;13.90;;
5951;SDS011;3001;42.622;23.194;2022-07-31T08:08:20;15.73;;;13.93;;
5951;SDS011;3001;42.622;23.194;2022-07-31T08:10:47;14.03;;;12.83;;
5951;SDS011;3001;42.622;23.194;2022-07-31T08:13:14;17.87;;;15.97;;
5951;SDS011;3001;42.622;23.194;2022-07-31T08:15:40;18.27;;;15.07;;
5951;SDS011;3001;42.622;23.194;2022-07-31T08:18:07;14.33;;;12.93;;
5951;SDS011;3001;42.622;23.194;2022-07-31T08:20:36;13.40;;;12.20;;
5951;SDS011;3001;42.622;23.194;2022-07-31T08:23:05;14.50;;;12.37;;
5951;SDS011;3001;42.622;23.194;2022-07-31T08:25:31;12.87;;;11.63;;
5951;SDS011;3001;42.622;23.194;2022-07-31T08:27:58;13.87;;;12.57;;
5951;SDS011;3001;42.622;23.194;2022-07-31T08:30:25;14.43;;;13.00;;
5951;SDS011;3001;42.622;23.194;2022-07-31T08:32:52;16.20;;;14.53;;
5951;SDS011;3001;42.622;23.194;2022-07-31T08:35:18;21.33;;;17.50;;
5951;SDS011;3001;42.622;23.194;2022-07-31T08:37:47;16.70;;;15.00;;
5951;SDS011;3001;42.622;23.194;2022-07-31T08:40:15;12.57;;;11.37;;
5951;SDS011;3001;42.622;23.194;2022-07-31T08:42:43;11.70;;;10.20;;
5951;SDS011;3001;42.622;23.194;2022-07-31T08:45:11;10.77;;;9.87;;
5951;SDS011;3001;42.622;23.194;2022-07-31T08:47:38;11.43;;;10.43;;
5951;SDS011;3001;42.622;23.194;2022-07-31T08:50:11;12.80;;;11.33;;
5951;SDS011;3001;42.622;23.194;2022-07-31T08:52:39;12.23;;;11.10;;
5951;SDS011;3001;42.622;23.194;2022-07-31T08:55:10;13.67;;;12.27;;
5951;SDS011;3001;42.622;23.194;2022-07-31T08:57:38;13.00;;;11.87;;
5951;SDS011;3001;42.622;23.194;2022-07-31T09:00:05;16.90;;;15.10;;
5951;SDS011;3001;42.622;23.194;2022-07-31T09:02:37;15.20;;;13.47;;
5951;SDS011;3001;42.622;23.194;2022-07-31T09:05:05;15.43;;;13.93;;
5951;SDS011;3001;42.622;23.194;2022-07-31T09:07:33;16.13;;;14.50;;
5951;SDS011;3001;42.622;23.194;2022-07-31T09:09:59;18.57;;;16.03;;
5951;SDS011;3001;42.622;23.194;2022-07-31T09:12:28;16.13;;;14.43;;
5951;SDS011;3001;42.622;23.194;2022-07-31T09:14:56;18.07;;;15.30;;
5951;SDS011;3001;42.622;23.194;2022-07-31T09:17:30;14.60;;;13.03;;
5951;SDS011;3001;42.622;23.194;2022-07-31T09:19:58;15.93;;;14.33;;
5951;SDS011;3001;42.622;23.194;2022-07-31T09:22:26;14.23;;;12.90;;
5951;SDS011;3001;42.622;23.194;2022-07-31T09:25:04;21.77;;;13.97;;
5951;SDS011;3001;42.622;23.194;2022-07-31T09:27:34;17.03;;;14.10;;
5951;SDS011;3001;42.622;23.194;2022-07-31T09:30:00;18.97;;;15.30;;
5951;SDS011;3001;42.622;23.194;2022-07-31T09:32:28;20.03;;;14.40;;
5951;SDS011;3001;42.622;23.194;2022-07-31T09:35:04;18.17;;;15.37;;
5951;SDS011;3001;42.622;23.194;2022-07-31T09:37:32;20.73;;;17.00;;
5951;SDS011;3001;42.622;23.194;2022-07-31T09:39:59;23.50;;;18.50;;
5951;SDS011;3001;42.622;23.194;2022-07-31T09:42:39;20.57;;;15.77;;
5951;SDS011;3001;42.622;23.194;2022-07-31T09:45:16;17.07;;;14.20;;
5951;SDS011;3001;42.622;23.194;2022-07-31T09:47:44;15.80;;;13.13;;
5951;SDS011;3001;42.622;23.194;2022-07-31T09:50:11;16.00;;;13.97;;
5951;SDS011;3001;42.622;23.194;2022-07-31T09:52:38;16.90;;;14.60;;
5951;SDS011;3001;42.622;23.194;2022-07-31T09:55:05;14.23;;;12.90;;
5951;SDS011;3001;42.622;23.194;2022-07-31T09:57:33;13.93;;;12.40;;
5951;SDS011;3001;42.622;23.194;2022-07-31T10:00:04;15.97;;;14.37;;
5951;SDS011;3001;42.622;23.194;2022-07-31T10:02:32;13.40;;;12.30;;
5951;SDS011;3001;42.622;23.194;2022-07-31T10:05:00;13.60;;;12.07;;
5951;SDS011;3001;42.622;23.194;2022-07-31T10:07:29;13.83;;;12.57;;
5951;SDS011;3001;42.622;23.194;2022-07-31T10:09:59;15.83;;;14.17;;
5951;SDS011;3001;42.622;23.194;2022-07-31T10:12:28;15.47;;;13.83;;
5951;SDS011;3001;42.622;23.194;2022-07-31T10:14:58;14.70;;;13.40;;
5951;SDS011;3001;42.622;23.194;2022-07-31T10:17:32;13.57;;;12.47;;
5951;SDS011;3001;42.622;23.194;2022-07-31T10:20:04;15.93;;;14.53;;
5951;SDS011;3001;42.622;23.194;2022-07-31T10:22:33;15.53;;;14.17;;
5951;SDS011;3001;42.622;23.194;2022-07-31T10:25:03;14.47;;;13.10;;
5951;SDS011;3001;42.622;23.194;2022-07-31T10:27:38;18.33;;;15.73;;
5951;SDS011;3001;42.622;23.194;2022-07-31T10:30:07;16.93;;;15.07;;
5951;SDS011;3001;42.622;23.194;2022-07-31T10:32:35;16.47;;;14.87;;
5951;SDS011;3001;42.622;23.194;2022-07-31T10:35:02;15.50;;;14.20;;
5951;SDS011;3001;42.622;23.194;2022-07-31T10:37:33;13.63;;;12.57;;
5951;SDS011;3001;42.622;23.194;2022-07-31T10:40:06;14.17;;;13.07;;
5951;SDS011;3001;42.622;23.194;2022-07-31T10:42:38;15.57;;;14.07;;
5951;SDS011;3001;42.622;23.194;2022-07-31T10:45:12;16.07;;;14.77;;
5951;SDS011;3001;42.622;23.194;2022-07-31T10:47:51;16.97;;;15.47;;
5951;SDS011;3001;42.622;23.194;2022-07-31T10:50:19;18.13;;;15.60;;
5951;SDS011;3001;42.622;23.194;2022-07-31T10:52:46;16.03;;;14.60;;
5951;SDS011;3001;42.622;23.194;2022-07-31T10:55:14;17.00;;;15.27;;
5951;SDS011;3001;42.622;23.194;2022-07-31T10:57:42;16.90;;;15.30;;
5951;SDS011;3001;42.622;23.194;2022-07-31T11:00:09;16.80;;;15.10;;
5951;SDS011;3001;42.622;23.194;2022-07-31T11:02:41;14.03;;;12.93;;
5951;SDS011;3001;42.622;23.194;2022-07-31T11:05:08;16.23;;;14.73;;
5951;SDS011;3001;42.622;23.194;2022-07-31T11:07:38;16.37;;;14.77;;
5951;SDS011;3001;42.622;23.194;2022-07-31T11:10:15;14.43;;;13.07;;
5951;SDS011;3001;42.622;23.194;2022-07-31T11:12:43;14.67;;;13.37;;
5951;SDS011;3001;42.622;23.194;2022-07-31T11:15:19;13.67;;;12.67;;
5951;SDS011;3001;42.622;23.194;2022-07-31T11:17:48;13.37;;;12.33;;
5951;SDS011;3001;42.622;23.194;2022-07-31T11:20:22;12.90;;;12.00;;
5951;SDS011;3001;42.622;23.194;2022-07-31T11:22:51;14.43;;;13.30;;
5951;SDS011;3001;42.622;23.194;2022-07-31T11:25:21;13.73;;;12.70;;
5951;SDS011;3001;42.622;23.194;2022-07-31T11:27:48;13.70;;;12.60;;
5951;SDS011;3001;42.622;23.194;2022-07-31T11:30:15;14.63;;;13.53;;
5951;SDS011;3001;42.622;23.194;2022-07-31T11:32:47;13.33;;;12.20;;
5951;SDS011;3001;42.622;23.194;2022-07-31T11:35:24;13.13;;;12.13;;
5951;SDS011;3001;42.622;23.194;2022-07-31T11:37:52;13.70;;;12.77;;
5951;SDS011;3001;42.622;23.194;2022-07-31T11:40:19;13.30;;;12.27;;
5951;SDS011;3001;42.622;23.194;2022-07-31T11:42:46;15.57;;;13.33;;
5951;SDS011;3001;42.622;23.194;2022-07-31T11:45:13;14.80;;;13.57;;
5951;SDS011;3001;42.622;23.194;2022-07-31T11:47:41;14.97;;;13.83;;
5951;SDS011;3001;42.622;23.194;2022-07-31T11:50:10;14.80;;;13.77;;
5951;SDS011;3001;42.622;23.194;2022-07-31T11:52:37;15.60;;;14.20;;
5951;SDS011;3001;42.622;23.194;2022-07-31T11:55:08;15.03;;;13.93;;
5951;SDS011;3001;42.622;23.194;2022-07-31T11:57:36;16.60;;;15.10;;
5951;SDS011;3001;42.622;23.194;2022-07-31T12:00:07;16.90;;;15.40;;
5951;SDS011;3001;42.622;23.194;2022-07-31T12:02:38;14.10;;;13.10;;
5951;SDS011;3001;42.622;23.194;2022-07-31T12:05:07;15.60;;;14.30;;
5951;SDS011;3001;42.622;23.194;2022-07-31T12:07:38;16.37;;;13.87;;
5951;SDS011;3001;42.622;23.194;2022-07-31T12:10:06;13.43;;;12.52;;
5951;SDS011;3001;42.622;23.194;2022-07-31T12:12:35;13.20;;;12.20;;
5951;SDS011;3001;42.622;23.194;2022-07-31T12:15:11;12.67;;;11.67;;
5951;SDS011;3001;42.622;23.194;2022-07-31T12:17:38;13.27;;;12.37;;
5951;SDS011;3001;42.622;23.194;2022-07-31T12:20:05;14.60;;;13.27;;
5951;SDS011;3001;42.622;23.194;2022-07-31T12:22:33;13.07;;;12.27;;
5951;SDS011;3001;42.622;23.194;2022-07-31T12:25:01;15.03;;;13.93;;
5951;SDS011;3001;42.622;23.194;2022-07-31T12:27:33;15.23;;;14.13;;
5951;SDS011;3001;42.622;23.194;2022-07-31T12:30:10;13.75;;;12.85;;
5951;SDS011;3001;42.622;23.194;2022-07-31T12:32:38;15.98;;;14.77;;
5951;SDS011;3001;42.622;23.194;2022-07-31T12:35:05;14.02;;;13.10;;
5951;SDS011;3001;42.622;23.194;2022-07-31T12:37:41;13.85;;;12.75;;
5951;SDS011;3001;42.622;23.194;2022-07-31T12:40:19;12.55;;;11.75;;
5951;SDS011;3001;42.622;23.194;2022-07-31T12:42:47;12.30;;;11.60;;
5951;SDS011;3001;42.622;23.194;2022-07-31T12:45:14;14.33;;;13.13;;
5951;SDS011;3001;42.622;23.194;2022-07-31T12:47:41;13.18;;;12.27;;
5951;SDS011;3001;42.622;23.194;2022-07-31T12:50:08;13.82;;;12.93;;
5951;SDS011;3001;42.622;23.194;2022-07-31T12:52:34;13.10;;;12.30;;
5951;SDS011;3001;42.622;23.194;2022-07-31T12:55:02;13.77;;;12.88;;
5951;SDS011;3001;42.622;23.194;2022-07-31T12:57:30;14.70;;;13.60;;
5951;SDS011;3001;42.622;23.194;2022-07-31T12:59:57;14.70;;;13.70;;
5951;SDS011;3001;42.622;23.194;2022-07-31T13:02:24;12.98;;;12.00;;
5951;SDS011;3001;42.622;23.194;2022-07-31T13:04:51;12.40;;;11.70;;
5951;SDS011;3001;42.622;23.194;2022-07-31T13:07:18;12.07;;;11.38;;
5951;SDS011;3001;42.622;23.194;2022-07-31T13:09:44;12.48;;;11.63;;
5951;SDS011;3001;42.622;23.194;2022-07-31T13:12:11;13.25;;;12.40;;
5951;SDS011;3001;42.622;23.194;2022-07-31T13:14:39;13.30;;;12.40;;
5951;SDS011;3001;42.622;23.194;2022-07-31T13:17:06;11.77;;;11.13;;
5951;SDS011;3001;42.622;23.194;2022-07-31T13:19:33;11.30;;;10.65;;
5951;SDS011;3001;42.622;23.194;2022-07-31T13:21:59;12.02;;;11.32;;
5951;SDS011;3001;42.622;23.194;2022-07-31T13:24:28;11.18;;;10.57;;
5951;SDS011;3001;42.622;23.194;2022-07-31T13:26:55;11.18;;;10.57;;
5951;SDS011;3001;42.622;23.194;2022-07-31T13:29:23;10.82;;;10.23;;
5951;SDS011;3001;42.622;23.194;2022-07-31T13:31:51;10.93;;;10.13;;
5951;SDS011;3001;42.622;23.194;2022-07-31T13:34:18;9.90;;;9.50;;
5951;SDS011;3001;42.622;23.194;2022-07-31T13:36:45;11.23;;;10.63;;
5951;SDS011;3001;42.622;23.194;2022-07-31T13:39:11;10.35;;;9.75;;
5951;SDS011;3001;42.622;23.194;2022-07-31T13:41:38;11.00;;;10.40;;
5951;SDS011;3001;42.622;23.194;2022-07-31T13:44:05;10.45;;;9.90;;
5951;SDS011;3001;42.622;23.194;2022-07-31T13:46:33;10.05;;;9.57;;
5951;SDS011;3001;42.622;23.194;2022-07-31T13:49:02;10.73;;;10.10;;
5951;SDS011;3001;42.622;23.194;2022-07-31T13:51:32;10.55;;;9.85;;
5951;SDS011;3001;42.622;23.194;2022-07-31T13:53:59;11.15;;;10.50;;
5951;SDS011;3001;42.622;23.194;2022-07-31T13:56:25;10.55;;;10.05;;
5951;SDS011;3001;42.622;23.194;2022-07-31T13:58:53;11.02;;;10.52;;
5951;SDS011;3001;42.622;23.194;2022-07-31T14:01:19;12.25;;;11.32;;
5951;SDS011;3001;42.622;23.194;2022-07-31T14:03:46;11.68;;;10.98;;
5951;SDS011;3001;42.622;23.194;2022-07-31T14:06:14;12.30;;;11.52;;
5951;SDS011;3001;42.622;23.194;2022-07-31T14:08:41;11.85;;;10.95;;
5951;SDS011;3001;42.622;23.194;2022-07-31T14:11:08;11.07;;;10.57;;
5951;SDS011;3001;42.622;23.194;2022-07-31T14:13:35;10.95;;;10.32;;
5951;SDS011;3001;42.622;23.194;2022-07-31T14:16:01;10.32;;;9.68;;
5951;SDS011;3001;42.622;23.194;2022-07-31T14:18:30;10.18;;;9.77;;
5951;SDS011;3001;42.622;23.194;2022-07-31T14:20:57;9.77;;;9.38;;
5951;SDS011;3001;42.622;23.194;2022-07-31T14:23:25;10.98;;;10.48;;
5951;SDS011;3001;42.622;23.194;2022-07-31T14:25:52;10.27;;;9.77;;
5951;SDS011;3001;42.622;23.194;2022-07-31T14:28:18;10.75;;;10.25;;
5951;SDS011;3001;42.622;23.194;2022-07-31T14:30:45;11.20;;;10.70;;
5951;SDS011;3001;42.622;23.194;2022-07-31T14:33:12;11.05;;;10.48;;
5951;SDS011;3001;42.622;23.194;2022-07-31T14:35:39;10.65;;;10.15;;
5951;SDS011;3001;42.622;23.194;2022-07-31T14:38:06;10.70;;;10.18;;
5951;SDS011;3001;42.622;23.194;2022-07-31T14:40:34;10.27;;;9.77;;
5951;SDS011;3001;42.622;23.194;2022-07-31T14:43:01;9.45;;;9.05;;
5951;SDS011;3001;42.622;23.194;2022-07-31T14:45:28;9.10;;;8.75;;
5951;SDS011;3001;42.622;23.194;2022-07-31T14:47:54;10.32;;;9.57;;
5951;SDS011;3001;42.622;23.194;2022-07-31T14:50:21;9.40;;;8.95;;
5951;SDS011;3001;42.622;23.194;2022-07-31T14:52:48;9.80;;;9.15;;